sensor_id;sensor_type;location;lat;lon;timestamp;P1;durP1;ratioP1;P2;durP2;ratioP2
6713;SDS011;3394;51.246;6.792;2023-04-24T00:00:55;1.73;;;1.30;;
6713;SDS011;3394;51.246;6.792;2023-04-24T00:01:53;2.25;;;1.45;;
6713;SDS011;3394;51.246;6.792;2023-04-24T00:02:52;2.35;;;1.50;;
6713;SDS011;3394;51.246;6.792;2023-04-24T00:03:53;1.40;;;1.25;;
6713;SDS011;3394;51.246;6.792;2023-04-24T00:04:53;1.67;;;1.30;;
6713;SDS011;3394;51.246;6.792;2023-04-24T00:05:50;2.10;;;1.20;;
6713;SDS011;3394;51.246;6.792;2023-04-24T00:06:49;1.60;;;1.50;;
6713;SDS011;3394;51.246;6.792;2023-04-24T00:07:50;1.25;;;1.15;;
6713;SDS011;3394;51.246;6.792;2023-04-24T00:08:50;1.33;;;1.23;;
6713;SDS011;3394;51.246;6.792;2023-04-24T00:09:48;2.37;;;1.23;;
6713;SDS011;3394;51.246;6.792;2023-04-24T00:10:47;1.65;;;1.55;;
6713;SDS011;3394;51.246;6.792;2023-04-24T00:11:45;2.33;;;1.23;;
6713;SDS011;3394;51.246;6.792;2023-04-24T00:12:43;2.05;;;1.48;;
6713;SDS011;3394;51.246;6.792;2023-04-24T00:13:41;2.50;;;1.60;;
6713;SDS011;3394;51.246;6.792;2023-04-24T00:14:40;2.38;;;1.40;;
6713;SDS011;3394;51.246;6.792;2023-04-24T00:15:39;1.40;;;1.30;;
6713;SDS011;3394;51.246;6.792;2023-04-24T00:16:38;1.63;;;1.50;;
6713;SDS011;3394;51.246;6.792;2023-04-24T00:17:36;1.40;;;1.30;;
6713;SDS011;3394;51.246;6.792;2023-04-24T00:18:34;1.45;;;1.35;;
6713;SDS011;3394;51.246;6.792;2023-04-24T00:19:32;1.43;;;1.20;;
6713;SDS011;3394;51.246;6.792;2023-04-24T00:20:31;2.25;;;1.70;;
6713;SDS011;3394;51.246;6.792;2023-04-24T00:21:29;1.55;;;1.35;;
6713;SDS011;3394;51.246;6.792;2023-04-24T00:22:29;1.80;;;1.70;;
6713;SDS011;3394;51.246;6.792;2023-04-24T00:23:28;2.00;;;1.90;;
6713;SDS011;3394;51.246;6.792;2023-04-24T00:24:27;1.65;;;1.55;;
6713;SDS011;3394;51.246;6.792;2023-04-24T00:25:24;4.83;;;1.90;;
6713;SDS011;3394;51.246;6.792;2023-04-24T00:26:23;2.58;;;1.60;;
6713;SDS011;3394;51.246;6.792;2023-04-24T00:27:21;2.70;;;1.80;;
6713;SDS011;3394;51.246;6.792;2023-04-24T00:28:20;1.50;;;1.40;;
6713;SDS011;3394;51.246;6.792;2023-04-24T00:29:17;4.13;;;1.77;;
6713;SDS011;3394;51.246;6.792;2023-04-24T00:30:16;1.40;;;1.30;;
6713;SDS011;3394;51.246;6.792;2023-04-24T00:31:15;4.30;;;1.50;;
6713;SDS011;3394;51.246;6.792;2023-04-24T00:32:14;2.08;;;1.60;;
6713;SDS011;3394;51.246;6.792;2023-04-24T00:33:12;2.85;;;1.50;;
6713;SDS011;3394;51.246;6.792;2023-04-24T00:34:12;1.95;;;1.40;;
6713;SDS011;3394;51.246;6.792;2023-04-24T00:35:09;1.60;;;1.50;;
6713;SDS011;3394;51.246;6.792;2023-04-24T00:36:08;1.50;;;1.40;;
6713;SDS011;3394;51.246;6.792;2023-04-24T00:37:06;1.40;;;1.30;;
6713;SDS011;3394;51.246;6.792;2023-04-24T00:38:05;1.60;;;1.50;;
6713;SDS011;3394;51.246;6.792;2023-04-24T00:39:03;2.70;;;1.73;;
6713;SDS011;3394;51.246;6.792;2023-04-24T00:40:02;1.60;;;1.50;;
6713;SDS011;3394;51.246;6.792;2023-04-24T00:41:00;2.13;;;1.60;;
6713;SDS011;3394;51.246;6.792;2023-04-24T00:41:59;1.50;;;1.40;;
6713;SDS011;3394;51.246;6.792;2023-04-24T00:42:58;2.00;;;1.73;;
6713;SDS011;3394;51.246;6.792;2023-04-24T00:43:57;2.78;;;1.58;;
6713;SDS011;3394;51.246;6.792;2023-04-24T00:44:55;1.70;;;1.60;;
6713;SDS011;3394;51.246;6.792;2023-04-24T00:45:54;2.13;;;1.92;;
6713;SDS011;3394;51.246;6.792;2023-04-24T00:46:54;1.90;;;1.80;;
6713;SDS011;3394;51.246;6.792;2023-04-24T00:47:53;2.22;;;1.77;;
6713;SDS011;3394;51.246;6.792;2023-04-24T00:48:50;2.10;;;1.90;;
6713;SDS011;3394;51.246;6.792;2023-04-24T00:49:50;3.63;;;1.60;;
6713;SDS011;3394;51.246;6.792;2023-04-24T00:50:48;1.70;;;1.60;;
6713;SDS011;3394;51.246;6.792;2023-04-24T00:51:46;2.38;;;1.60;;
6713;SDS011;3394;51.246;6.792;2023-04-24T00:52:46;1.67;;;1.58;;
6713;SDS011;3394;51.246;6.792;2023-04-24T00:53:44;2.55;;;1.73;;
6713;SDS011;3394;51.246;6.792;2023-04-24T00:54:42;2.00;;;1.90;;
6713;SDS011;3394;51.246;6.792;2023-04-24T00:55:41;2.22;;;1.90;;
6713;SDS011;3394;51.246;6.792;2023-04-24T00:56:39;1.75;;;1.65;;
6713;SDS011;3394;51.246;6.792;2023-04-24T00:57:39;2.42;;;1.90;;
6713;SDS011;3394;51.246;6.792;2023-04-24T00:58:37;2.93;;;2.10;;
6713;SDS011;3394;51.246;6.792;2023-04-24T00:59:36;2.20;;;2.00;;
6713;SDS011;3394;51.246;6.792;2023-04-24T01:00:34;2.20;;;1.83;;
6713;SDS011;3394;51.246;6.792;2023-04-24T01:01:33;3.10;;;1.88;;
6713;SDS011;3394;51.246;6.792;2023-04-24T01:02:33;2.08;;;1.80;;
6713;SDS011;3394;51.246;6.792;2023-04-24T01:03:32;2.75;;;1.75;;
6713;SDS011;3394;51.246;6.792;2023-04-24T01:04:30;1.85;;;1.73;;
6713;SDS011;3394;51.246;6.792;2023-04-24T01:05:29;2.22;;;1.85;;
6713;SDS011;3394;51.246;6.792;2023-04-24T01:06:28;2.25;;;2.05;;
6713;SDS011;3394;51.246;6.792;2023-04-24T01:07:28;2.00;;;1.70;;
6713;SDS011;3394;51.246;6.792;2023-04-24T01:08:26;2.53;;;1.98;;
6713;SDS011;3394;51.246;6.792;2023-04-24T01:09:26;3.55;;;2.30;;
6713;SDS011;3394;51.246;6.792;2023-04-24T01:10:24;1.83;;;1.73;;
6713;SDS011;3394;51.246;6.792;2023-04-24T01:11:25;2.13;;;1.98;;
6713;SDS011;3394;51.246;6.792;2023-04-24T01:12:23;2.60;;;2.25;;
6713;SDS011;3394;51.246;6.792;2023-04-24T01:13:22;2.15;;;1.95;;
6713;SDS011;3394;51.246;6.792;2023-04-24T01:14:20;2.00;;;1.80;;
6713;SDS011;3394;51.246;6.792;2023-04-24T01:15:19;2.90;;;2.03;;
6713;SDS011;3394;51.246;6.792;2023-04-24T01:16:16;1.87;;;1.77;;
6713;SDS011;3394;51.246;6.792;2023-04-24T01:17:17;3.22;;;1.80;;
6713;SDS011;3394;51.246;6.792;2023-04-24T01:18:17;2.13;;;1.90;;
6713;SDS011;3394;51.246;6.792;2023-04-24T01:19:16;3.25;;;1.90;;
6713;SDS011;3394;51.246;6.792;2023-04-24T01:20:15;2.45;;;1.95;;
6713;SDS011;3394;51.246;6.792;2023-04-24T01:21:15;2.53;;;1.73;;
6713;SDS011;3394;51.246;6.792;2023-04-24T01:22:15;2.00;;;1.60;;
6713;SDS011;3394;51.246;6.792;2023-04-24T01:23:14;2.25;;;2.00;;
6713;SDS011;3394;51.246;6.792;2023-04-24T01:24:12;2.30;;;2.10;;
6713;SDS011;3394;51.246;6.792;2023-04-24T01:25:11;2.95;;;1.70;;
6713;SDS011;3394;51.246;6.792;2023-04-24T01:26:09;2.07;;;1.87;;
6713;SDS011;3394;51.246;6.792;2023-04-24T01:27:08;3.28;;;1.80;;
6713;SDS011;3394;51.246;6.792;2023-04-24T01:28:07;2.90;;;1.70;;
6713;SDS011;3394;51.246;6.792;2023-04-24T01:29:06;3.05;;;2.10;;
6713;SDS011;3394;51.246;6.792;2023-04-24T01:30:04;3.17;;;2.03;;
6713;SDS011;3394;51.246;6.792;2023-04-24T01:31:04;2.78;;;2.30;;
6713;SDS011;3394;51.246;6.792;2023-04-24T01:32:02;2.67;;;1.80;;
6713;SDS011;3394;51.246;6.792;2023-04-24T01:33:01;3.13;;;2.13;;
6713;SDS011;3394;51.246;6.792;2023-04-24T01:33:59;2.30;;;1.70;;
6713;SDS011;3394;51.246;6.792;2023-04-24T01:34:59;2.00;;;1.90;;
6713;SDS011;3394;51.246;6.792;2023-04-24T01:35:57;2.38;;;2.17;;
6713;SDS011;3394;51.246;6.792;2023-04-24T01:36:56;2.30;;;2.10;;
6713;SDS011;3394;51.246;6.792;2023-04-24T01:37:55;2.43;;;2.07;;
6713;SDS011;3394;51.246;6.792;2023-04-24T01:38:53;2.90;;;2.45;;
6713;SDS011;3394;51.246;6.792;2023-04-24T01:39:52;2.47;;;2.10;;
6713;SDS011;3394;51.246;6.792;2023-04-24T01:40:50;3.13;;;2.50;;
6713;SDS011;3394;51.246;6.792;2023-04-24T01:41:49;3.15;;;2.50;;
6713;SDS011;3394;51.246;6.792;2023-04-24T01:42:49;3.22;;;2.25;;
6713;SDS011;3394;51.246;6.792;2023-04-24T01:43:47;2.88;;;2.47;;
6713;SDS011;3394;51.246;6.792;2023-04-24T01:44:47;3.05;;;2.40;;
6713;SDS011;3394;51.246;6.792;2023-04-24T01:45:44;2.83;;;2.43;;
6713;SDS011;3394;51.246;6.792;2023-04-24T01:46:43;3.15;;;2.47;;
6713;SDS011;3394;51.246;6.792;2023-04-24T01:47:41;5.00;;;2.87;;
6713;SDS011;3394;51.246;6.792;2023-04-24T01:48:40;3.08;;;2.55;;
6713;SDS011;3394;51.246;6.792;2023-04-24T01:49:38;3.65;;;2.85;;
6713;SDS011;3394;51.246;6.792;2023-04-24T01:50:37;2.65;;;2.45;;
6713;SDS011;3394;51.246;6.792;2023-04-24T01:51:35;2.97;;;2.57;;
6713;SDS011;3394;51.246;6.792;2023-04-24T01:52:34;4.10;;;3.20;;
6713;SDS011;3394;51.246;6.792;2023-04-24T01:53:34;3.72;;;2.63;;
6713;SDS011;3394;51.246;6.792;2023-04-24T01:54:33;3.50;;;3.20;;
6713;SDS011;3394;51.246;6.792;2023-04-24T01:55:31;3.20;;;2.90;;
6713;SDS011;3394;51.246;6.792;2023-04-24T01:56:29;3.53;;;3.22;;
6713;SDS011;3394;51.246;6.792;2023-04-24T01:57:29;3.63;;;3.33;;
6713;SDS011;3394;51.246;6.792;2023-04-24T01:58:28;3.63;;;3.33;;
6713;SDS011;3394;51.246;6.792;2023-04-24T01:59:26;4.22;;;3.10;;
6713;SDS011;3394;51.246;6.792;2023-04-24T02:00:26;3.58;;;3.28;;
6713;SDS011;3394;51.246;6.792;2023-04-24T02:01:24;3.73;;;3.20;;
6713;SDS011;3394;51.246;6.792;2023-04-24T02:02:23;4.20;;;3.55;;
6713;SDS011;3394;51.246;6.792;2023-04-24T02:03:21;3.97;;;3.58;;
6713;SDS011;3394;51.246;6.792;2023-04-24T02:04:19;3.78;;;3.47;;
6713;SDS011;3394;51.246;6.792;2023-04-24T02:05:17;5.40;;;3.83;;
6713;SDS011;3394;51.246;6.792;2023-04-24T02:06:16;4.57;;;3.95;;
6713;SDS011;3394;51.246;6.792;2023-04-24T02:07:14;4.60;;;4.17;;
6713;SDS011;3394;51.246;6.792;2023-04-24T02:08:12;4.85;;;4.07;;
6713;SDS011;3394;51.246;6.792;2023-04-24T02:09:12;5.70;;;4.07;;
6713;SDS011;3394;51.246;6.792;2023-04-24T02:10:10;4.63;;;4.03;;
6713;SDS011;3394;51.246;6.792;2023-04-24T02:11:09;6.68;;;4.80;;
6713;SDS011;3394;51.246;6.792;2023-04-24T02:12:07;6.47;;;5.53;;
6713;SDS011;3394;51.246;6.792;2023-04-24T02:13:05;5.97;;;5.37;;
6713;SDS011;3394;51.246;6.792;2023-04-24T02:14:04;6.28;;;5.68;;
6713;SDS011;3394;51.246;6.792;2023-04-24T02:15:02;10.13;;;6.40;;
6713;SDS011;3394;51.246;6.792;2023-04-24T02:16:02;8.50;;;6.07;;
6713;SDS011;3394;51.246;6.792;2023-04-24T02:17:00;9.20;;;5.57;;
6713;SDS011;3394;51.246;6.792;2023-04-24T02:17:58;6.80;;;5.55;;
6713;SDS011;3394;51.246;6.792;2023-04-24T02:18:56;6.97;;;5.80;;
6713;SDS011;3394;51.246;6.792;2023-04-24T02:19:55;6.15;;;5.55;;
6713;SDS011;3394;51.246;6.792;2023-04-24T02:20:53;7.47;;;5.33;;
6713;SDS011;3394;51.246;6.792;2023-04-24T02:21:52;7.40;;;5.93;;
6713;SDS011;3394;51.246;6.792;2023-04-24T02:22:50;7.57;;;5.60;;
6713;SDS011;3394;51.246;6.792;2023-04-24T02:23:48;6.57;;;5.75;;
6713;SDS011;3394;51.246;6.792;2023-04-24T02:24:48;6.80;;;5.93;;
6713;SDS011;3394;51.246;6.792;2023-04-24T02:25:47;6.30;;;5.70;;
6713;SDS011;3394;51.246;6.792;2023-04-24T02:26:44;7.03;;;6.33;;
6713;SDS011;3394;51.246;6.792;2023-04-24T02:27:43;8.50;;;6.00;;
6713;SDS011;3394;51.246;6.792;2023-04-24T02:28:41;8.53;;;6.83;;
6713;SDS011;3394;51.246;6.792;2023-04-24T02:29:40;7.30;;;6.47;;
6713;SDS011;3394;51.246;6.792;2023-04-24T02:30:37;8.40;;;6.73;;
6713;SDS011;3394;51.246;6.792;2023-04-24T02:31:36;7.18;;;6.47;;
6713;SDS011;3394;51.246;6.792;2023-04-24T02:32:34;7.47;;;6.30;;
6713;SDS011;3394;51.246;6.792;2023-04-24T02:33:32;7.03;;;6.28;;
6713;SDS011;3394;51.246;6.792;2023-04-24T02:34:30;6.77;;;6.07;;
6713;SDS011;3394;51.246;6.792;2023-04-24T02:35:29;8.60;;;6.68;;
6713;SDS011;3394;51.246;6.792;2023-04-24T02:36:27;7.97;;;6.63;;
6713;SDS011;3394;51.246;6.792;2023-04-24T02:37:25;6.88;;;6.18;;
6713;SDS011;3394;51.246;6.792;2023-04-24T02:38:23;8.97;;;6.17;;
6713;SDS011;3394;51.246;6.792;2023-04-24T02:39:22;6.70;;;6.10;;
6713;SDS011;3394;51.246;6.792;2023-04-24T02:40:21;10.23;;;6.43;;
6713;SDS011;3394;51.246;6.792;2023-04-24T02:41:20;7.28;;;6.10;;
6713;SDS011;3394;51.246;6.792;2023-04-24T02:42:18;9.33;;;6.67;;
6713;SDS011;3394;51.246;6.792;2023-04-24T02:43:16;7.13;;;6.43;;
6713;SDS011;3394;51.246;6.792;2023-04-24T02:44:14;9.07;;;6.20;;
6713;SDS011;3394;51.246;6.792;2023-04-24T02:45:14;7.40;;;6.20;;
6713;SDS011;3394;51.246;6.792;2023-04-24T02:46:12;8.83;;;6.10;;
6713;SDS011;3394;51.246;6.792;2023-04-24T02:47:10;9.65;;;6.65;;
6713;SDS011;3394;51.246;6.792;2023-04-24T02:48:08;8.93;;;7.33;;
6713;SDS011;3394;51.246;6.792;2023-04-24T02:49:07;8.38;;;7.35;;
6713;SDS011;3394;51.246;6.792;2023-04-24T02:50:05;8.13;;;7.27;;
6713;SDS011;3394;51.246;6.792;2023-04-24T02:51:05;10.60;;;7.10;;
6713;SDS011;3394;51.246;6.792;2023-04-24T02:52:03;13.20;;;7.13;;
6713;SDS011;3394;51.246;6.792;2023-04-24T02:53:02;8.93;;;7.15;;
6713;SDS011;3394;51.246;6.792;2023-04-24T02:54:00;8.73;;;7.83;;
6713;SDS011;3394;51.246;6.792;2023-04-24T02:54:58;11.60;;;7.38;;
6713;SDS011;3394;51.246;6.792;2023-04-24T02:55:58;10.37;;;7.67;;
6713;SDS011;3394;51.246;6.792;2023-04-24T02:56:56;10.68;;;7.53;;
6713;SDS011;3394;51.246;6.792;2023-04-24T02:57:54;10.20;;;7.27;;
6713;SDS011;3394;51.246;6.792;2023-04-24T02:58:53;12.27;;;8.07;;
6713;SDS011;3394;51.246;6.792;2023-04-24T02:59:51;9.03;;;7.93;;
6713;SDS011;3394;51.246;6.792;2023-04-24T03:00:52;10.18;;;8.20;;
6713;SDS011;3394;51.246;6.792;2023-04-24T03:01:51;10.38;;;8.35;;
6713;SDS011;3394;51.246;6.792;2023-04-24T03:02:49;8.93;;;7.97;;
6713;SDS011;3394;51.246;6.792;2023-04-24T03:03:47;11.63;;;8.50;;
6713;SDS011;3394;51.246;6.792;2023-04-24T03:04:46;11.07;;;8.82;;
6713;SDS011;3394;51.246;6.792;2023-04-24T03:05:45;12.55;;;9.10;;
6713;SDS011;3394;51.246;6.792;2023-04-24T03:06:44;10.40;;;8.70;;
6713;SDS011;3394;51.246;6.792;2023-04-24T03:07:42;10.10;;;8.70;;
6713;SDS011;3394;51.246;6.792;2023-04-24T03:08:40;10.07;;;8.50;;
6713;SDS011;3394;51.246;6.792;2023-04-24T03:09:38;11.47;;;8.67;;
6713;SDS011;3394;51.246;6.792;2023-04-24T03:10:37;9.27;;;8.38;;
6713;SDS011;3394;51.246;6.792;2023-04-24T03:11:36;9.67;;;8.13;;
6713;SDS011;3394;51.246;6.792;2023-04-24T03:12:34;9.77;;;8.68;;
6713;SDS011;3394;51.246;6.792;2023-04-24T03:13:32;11.07;;;8.60;;
6713;SDS011;3394;51.246;6.792;2023-04-24T03:14:31;9.23;;;8.20;;
6713;SDS011;3394;51.246;6.792;2023-04-24T03:15:29;9.00;;;7.83;;
6713;SDS011;3394;51.246;6.792;2023-04-24T03:16:28;10.07;;;8.32;;
6713;SDS011;3394;51.246;6.792;2023-04-24T03:17:26;8.87;;;7.60;;
6713;SDS011;3394;51.246;6.792;2023-04-24T03:18:25;8.88;;;7.30;;
6713;SDS011;3394;51.246;6.792;2023-04-24T03:19:22;9.00;;;7.90;;
6713;SDS011;3394;51.246;6.792;2023-04-24T03:20:21;9.75;;;7.68;;
6713;SDS011;3394;51.246;6.792;2023-04-24T03:21:19;9.80;;;8.03;;
6713;SDS011;3394;51.246;6.792;2023-04-24T03:22:18;10.23;;;7.82;;
6713;SDS011;3394;51.246;6.792;2023-04-24T03:23:15;9.23;;;7.53;;
6713;SDS011;3394;51.246;6.792;2023-04-24T03:24:14;9.90;;;8.13;;
6713;SDS011;3394;51.246;6.792;2023-04-24T03:25:12;11.77;;;7.77;;
6713;SDS011;3394;51.246;6.792;2023-04-24T03:26:11;10.35;;;7.50;;
6713;SDS011;3394;51.246;6.792;2023-04-24T03:27:10;11.67;;;7.80;;
6713;SDS011;3394;51.246;6.792;2023-04-24T03:28:08;9.50;;;7.45;;
6713;SDS011;3394;51.246;6.792;2023-04-24T03:29:06;12.97;;;7.60;;
6713;SDS011;3394;51.246;6.792;2023-04-24T03:30:05;11.43;;;7.78;;
6713;SDS011;3394;51.246;6.792;2023-04-24T03:31:04;9.02;;;7.28;;
6713;SDS011;3394;51.246;6.792;2023-04-24T03:32:03;9.23;;;7.45;;
6713;SDS011;3394;51.246;6.792;2023-04-24T03:33:01;8.83;;;7.53;;
6713;SDS011;3394;51.246;6.792;2023-04-24T03:33:59;8.35;;;7.40;;
6713;SDS011;3394;51.246;6.792;2023-04-24T03:34:57;10.77;;;7.67;;
6713;SDS011;3394;51.246;6.792;2023-04-24T03:35:56;8.27;;;7.07;;
6713;SDS011;3394;51.246;6.792;2023-04-24T03:36:54;9.27;;;7.27;;
6713;SDS011;3394;51.246;6.792;2023-04-24T03:37:53;13.38;;;8.27;;
6713;SDS011;3394;51.246;6.792;2023-04-24T03:38:50;9.83;;;7.87;;
6713;SDS011;3394;51.246;6.792;2023-04-24T03:39:49;9.70;;;8.43;;
6713;SDS011;3394;51.246;6.792;2023-04-24T03:40:47;9.50;;;7.97;;
6713;SDS011;3394;51.246;6.792;2023-04-24T03:41:46;9.07;;;7.63;;
6713;SDS011;3394;51.246;6.792;2023-04-24T03:42:45;10.53;;;8.03;;
6713;SDS011;3394;51.246;6.792;2023-04-24T03:43:43;9.40;;;7.72;;
6713;SDS011;3394;51.246;6.792;2023-04-24T03:44:41;12.27;;;8.03;;
6713;SDS011;3394;51.246;6.792;2023-04-24T03:45:40;10.95;;;7.93;;
6713;SDS011;3394;51.246;6.792;2023-04-24T03:46:38;8.52;;;7.57;;
6713;SDS011;3394;51.246;6.792;2023-04-24T03:47:37;8.50;;;7.70;;
6713;SDS011;3394;51.246;6.792;2023-04-24T03:48:34;11.67;;;8.00;;
6713;SDS011;3394;51.246;6.792;2023-04-24T03:49:33;10.15;;;8.00;;
6713;SDS011;3394;51.246;6.792;2023-04-24T03:50:31;11.00;;;8.07;;
6713;SDS011;3394;51.246;6.792;2023-04-24T03:51:30;10.70;;;7.68;;
6713;SDS011;3394;51.246;6.792;2023-04-24T03:52:28;8.45;;;7.43;;
6713;SDS011;3394;51.246;6.792;2023-04-24T03:53:27;12.82;;;8.30;;
6713;SDS011;3394;51.246;6.792;2023-04-24T03:54:25;9.90;;;8.77;;
6713;SDS011;3394;51.246;6.792;2023-04-24T03:55:23;12.55;;;8.57;;
6713;SDS011;3394;51.246;6.792;2023-04-24T03:56:21;12.77;;;8.27;;
6713;SDS011;3394;51.246;6.792;2023-04-24T03:57:20;11.05;;;8.00;;
6713;SDS011;3394;51.246;6.792;2023-04-24T03:58:20;11.68;;;8.38;;
6713;SDS011;3394;51.246;6.792;2023-04-24T03:59:19;11.82;;;8.50;;
6713;SDS011;3394;51.246;6.792;2023-04-24T04:00:16;10.07;;;8.77;;
6713;SDS011;3394;51.246;6.792;2023-04-24T04:01:15;12.75;;;8.48;;
6713;SDS011;3394;51.246;6.792;2023-04-24T04:02:13;13.53;;;8.47;;
6713;SDS011;3394;51.246;6.792;2023-04-24T04:03:12;11.43;;;8.48;;
6713;SDS011;3394;51.246;6.792;2023-04-24T04:04:10;11.55;;;8.65;;
6713;SDS011;3394;51.246;6.792;2023-04-24T04:05:09;11.13;;;8.32;;
6713;SDS011;3394;51.246;6.792;2023-04-24T04:06:07;9.77;;;8.07;;
6713;SDS011;3394;51.246;6.792;2023-04-24T04:07:08;10.32;;;8.73;;
6713;SDS011;3394;51.246;6.792;2023-04-24T04:08:05;11.20;;;8.30;;
6713;SDS011;3394;51.246;6.792;2023-04-24T04:09:04;11.32;;;8.60;;
6713;SDS011;3394;51.246;6.792;2023-04-24T04:10:02;11.07;;;8.70;;
6713;SDS011;3394;51.246;6.792;2023-04-24T04:11:01;10.90;;;8.70;;
6713;SDS011;3394;51.246;6.792;2023-04-24T04:11:59;9.48;;;8.45;;
6713;SDS011;3394;51.246;6.792;2023-04-24T04:12:58;10.57;;;9.07;;
6713;SDS011;3394;51.246;6.792;2023-04-24T04:13:58;12.07;;;9.07;;
6713;SDS011;3394;51.246;6.792;2023-04-24T04:14:57;12.20;;;8.68;;
6713;SDS011;3394;51.246;6.792;2023-04-24T04:15:55;11.07;;;9.10;;
6713;SDS011;3394;51.246;6.792;2023-04-24T04:16:53;11.90;;;9.30;;
6713;SDS011;3394;51.246;6.792;2023-04-24T04:17:51;10.10;;;8.97;;
6713;SDS011;3394;51.246;6.792;2023-04-24T04:18:50;12.27;;;8.90;;
6713;SDS011;3394;51.246;6.792;2023-04-24T04:19:48;11.63;;;9.57;;
6713;SDS011;3394;51.246;6.792;2023-04-24T04:20:46;15.10;;;10.63;;
6713;SDS011;3394;51.246;6.792;2023-04-24T04:21:44;11.57;;;9.17;;
6713;SDS011;3394;51.246;6.792;2023-04-24T04:22:47;11.82;;;9.35;;
6713;SDS011;3394;51.246;6.792;2023-04-24T04:23:45;10.83;;;9.20;;
6713;SDS011;3394;51.246;6.792;2023-04-24T04:24:44;10.35;;;9.23;;
6713;SDS011;3394;51.246;6.792;2023-04-24T04:25:43;13.43;;;9.15;;
6713;SDS011;3394;51.246;6.792;2023-04-24T04:26:42;12.20;;;9.60;;
6713;SDS011;3394;51.246;6.792;2023-04-24T04:27:43;11.52;;;9.35;;
6713;SDS011;3394;51.246;6.792;2023-04-24T04:28:42;12.55;;;8.75;;
6713;SDS011;3394;51.246;6.792;2023-04-24T04:29:42;9.50;;;8.35;;
6713;SDS011;3394;51.246;6.792;2023-04-24T04:30:41;12.75;;;9.10;;
6713;SDS011;3394;51.246;6.792;2023-04-24T04:31:39;11.13;;;8.53;;
6713;SDS011;3394;51.246;6.792;2023-04-24T04:32:38;11.27;;;8.85;;
6713;SDS011;3394;51.246;6.792;2023-04-24T04:33:35;12.03;;;8.60;;
6713;SDS011;3394;51.246;6.792;2023-04-24T04:34:36;10.07;;;8.88;;
6713;SDS011;3394;51.246;6.792;2023-04-24T04:35:34;12.13;;;8.50;;
6713;SDS011;3394;51.246;6.792;2023-04-24T04:36:33;12.20;;;8.70;;
6713;SDS011;3394;51.246;6.792;2023-04-24T04:37:33;11.75;;;9.05;;
6713;SDS011;3394;51.246;6.792;2023-04-24T04:38:32;10.90;;;8.90;;
6713;SDS011;3394;51.246;6.792;2023-04-24T04:39:30;9.73;;;7.88;;
6713;SDS011;3394;51.246;6.792;2023-04-24T04:40:29;9.77;;;8.75;;
6713;SDS011;3394;51.246;6.792;2023-04-24T04:41:27;11.27;;;8.57;;
6713;SDS011;3394;51.246;6.792;2023-04-24T04:42:25;10.00;;;9.00;;
6713;SDS011;3394;51.246;6.792;2023-04-24T04:43:24;14.20;;;9.05;;
6713;SDS011;3394;51.246;6.792;2023-04-24T04:44:23;11.65;;;8.45;;
6713;SDS011;3394;51.246;6.792;2023-04-24T04:45:22;9.45;;;8.45;;
6713;SDS011;3394;51.246;6.792;2023-04-24T04:46:21;14.95;;;9.38;;
6713;SDS011;3394;51.246;6.792;2023-04-24T04:47:22;10.40;;;8.77;;
6713;SDS011;3394;51.246;6.792;2023-04-24T04:48:21;11.00;;;8.40;;
6713;SDS011;3394;51.246;6.792;2023-04-24T04:49:19;12.70;;;9.17;;
6713;SDS011;3394;51.246;6.792;2023-04-24T04:50:18;10.35;;;8.60;;
6713;SDS011;3394;51.246;6.792;2023-04-24T04:51:16;11.20;;;7.97;;
6713;SDS011;3394;51.246;6.792;2023-04-24T04:52:15;11.45;;;8.85;;
6713;SDS011;3394;51.246;6.792;2023-04-24T04:53:14;11.02;;;8.50;;
6713;SDS011;3394;51.246;6.792;2023-04-24T04:54:13;12.98;;;9.30;;
6713;SDS011;3394;51.246;6.792;2023-04-24T04:55:10;11.90;;;8.60;;
6713;SDS011;3394;51.246;6.792;2023-04-24T04:56:10;9.95;;;8.85;;
6713;SDS011;3394;51.246;6.792;2023-04-24T04:57:08;10.57;;;8.73;;
6713;SDS011;3394;51.246;6.792;2023-04-24T04:58:06;11.60;;;8.55;;
6713;SDS011;3394;51.246;6.792;2023-04-24T04:59:04;11.37;;;8.20;;
6713;SDS011;3394;51.246;6.792;2023-04-24T05:00:03;11.75;;;8.52;;
6713;SDS011;3394;51.246;6.792;2023-04-24T05:01:03;10.95;;;8.52;;
6713;SDS011;3394;51.246;6.792;2023-04-24T05:02:03;13.05;;;9.10;;
6713;SDS011;3394;51.246;6.792;2023-04-24T05:03:01;10.52;;;9.45;;
6713;SDS011;3394;51.246;6.792;2023-04-24T05:04:00;10.52;;;8.57;;
6713;SDS011;3394;51.246;6.792;2023-04-24T05:04:58;10.87;;;9.00;;
6713;SDS011;3394;51.246;6.792;2023-04-24T05:05:57;14.77;;;8.85;;
6713;SDS011;3394;51.246;6.792;2023-04-24T05:06:55;13.35;;;9.85;;
6713;SDS011;3394;51.246;6.792;2023-04-24T05:07:53;11.05;;;9.82;;
6713;SDS011;3394;51.246;6.792;2023-04-24T05:08:51;13.10;;;10.03;;
6713;SDS011;3394;51.246;6.792;2023-04-24T05:09:54;13.35;;;10.15;;
6713;SDS011;3394;51.246;6.792;2023-04-24T05:10:51;13.40;;;9.90;;
6713;SDS011;3394;51.246;6.792;2023-04-24T05:11:50;12.27;;;9.65;;
6713;SDS011;3394;51.246;6.792;2023-04-24T05:12:48;12.67;;;10.20;;
6713;SDS011;3394;51.246;6.792;2023-04-24T05:13:47;16.25;;;10.82;;
6713;SDS011;3394;51.246;6.792;2023-04-24T05:14:45;11.73;;;9.57;;
6713;SDS011;3394;51.246;6.792;2023-04-24T05:15:43;13.45;;;10.75;;
6713;SDS011;3394;51.246;6.792;2023-04-24T05:16:42;13.53;;;10.30;;
6713;SDS011;3394;51.246;6.792;2023-04-24T05:17:41;13.07;;;9.48;;
6713;SDS011;3394;51.246;6.792;2023-04-24T05:18:39;11.53;;;10.33;;
6713;SDS011;3394;51.246;6.792;2023-04-24T05:19:38;12.02;;;10.20;;
6713;SDS011;3394;51.246;6.792;2023-04-24T05:20:36;13.20;;;10.70;;
6713;SDS011;3394;51.246;6.792;2023-04-24T05:21:34;12.90;;;9.93;;
6713;SDS011;3394;51.246;6.792;2023-04-24T05:22:33;13.25;;;9.70;;
6713;SDS011;3394;51.246;6.792;2023-04-24T05:23:31;13.77;;;10.20;;
6713;SDS011;3394;51.246;6.792;2023-04-24T05:24:30;13.20;;;8.70;;
6713;SDS011;3394;51.246;6.792;2023-04-24T05:25:27;13.03;;;9.43;;
6713;SDS011;3394;51.246;6.792;2023-04-24T05:26:29;9.65;;;8.65;;
6713;SDS011;3394;51.246;6.792;2023-04-24T05:27:27;11.60;;;9.67;;
6713;SDS011;3394;51.246;6.792;2023-04-24T05:28:25;10.73;;;9.43;;
6713;SDS011;3394;51.246;6.792;2023-04-24T05:29:25;14.13;;;9.45;;
6713;SDS011;3394;51.246;6.792;2023-04-24T05:30:24;10.32;;;8.73;;
6713;SDS011;3394;51.246;6.792;2023-04-24T05:31:22;14.60;;;9.68;;
6713;SDS011;3394;51.246;6.792;2023-04-24T05:32:22;10.90;;;9.10;;
6713;SDS011;3394;51.246;6.792;2023-04-24T05:33:20;11.20;;;9.38;;
6713;SDS011;3394;51.246;6.792;2023-04-24T05:34:19;14.93;;;9.27;;
6713;SDS011;3394;51.246;6.792;2023-04-24T05:35:17;11.13;;;9.30;;
6713;SDS011;3394;51.246;6.792;2023-04-24T05:36:15;10.43;;;8.57;;
6713;SDS011;3394;51.246;6.792;2023-04-24T05:37:14;11.45;;;9.52;;
6713;SDS011;3394;51.246;6.792;2023-04-24T05:38:12;9.93;;;8.13;;
6713;SDS011;3394;51.246;6.792;2023-04-24T05:39:11;13.23;;;8.45;;
6713;SDS011;3394;51.246;6.792;2023-04-24T05:40:09;11.10;;;8.10;;
6713;SDS011;3394;51.246;6.792;2023-04-24T05:41:08;10.88;;;7.45;;
6713;SDS011;3394;51.246;6.792;2023-04-24T05:42:06;9.37;;;8.30;;
6713;SDS011;3394;51.246;6.792;2023-04-24T05:43:05;8.88;;;7.45;;
6713;SDS011;3394;51.246;6.792;2023-04-24T05:44:03;9.37;;;7.37;;
6713;SDS011;3394;51.246;6.792;2023-04-24T05:45:02;9.88;;;7.75;;
6713;SDS011;3394;51.246;6.792;2023-04-24T05:46:00;9.70;;;7.93;;
6713;SDS011;3394;51.246;6.792;2023-04-24T05:46:59;9.50;;;8.30;;
6713;SDS011;3394;51.246;6.792;2023-04-24T05:47:59;10.40;;;8.25;;
6713;SDS011;3394;51.246;6.792;2023-04-24T05:48:57;10.98;;;7.95;;
6713;SDS011;3394;51.246;6.792;2023-04-24T05:49:55;10.40;;;7.57;;
6713;SDS011;3394;51.246;6.792;2023-04-24T05:50:54;10.55;;;7.95;;
6713;SDS011;3394;51.246;6.792;2023-04-24T05:51:52;10.30;;;8.20;;
6713;SDS011;3394;51.246;6.792;2023-04-24T05:52:50;9.02;;;8.13;;
6713;SDS011;3394;51.246;6.792;2023-04-24T05:53:48;10.87;;;9.00;;
6713;SDS011;3394;51.246;6.792;2023-04-24T05:54:47;11.55;;;9.32;;
6713;SDS011;3394;51.246;6.792;2023-04-24T05:55:45;11.70;;;9.20;;
6713;SDS011;3394;51.246;6.792;2023-04-24T05:56:45;10.18;;;9.07;;
6713;SDS011;3394;51.246;6.792;2023-04-24T05:57:43;12.27;;;9.45;;
6713;SDS011;3394;51.246;6.792;2023-04-24T05:58:42;11.93;;;9.32;;
6713;SDS011;3394;51.246;6.792;2023-04-24T05:59:40;11.87;;;9.60;;
6713;SDS011;3394;51.246;6.792;2023-04-24T06:00:39;12.68;;;9.70;;
6713;SDS011;3394;51.246;6.792;2023-04-24T06:01:39;14.70;;;10.50;;
6713;SDS011;3394;51.246;6.792;2023-04-24T06:02:38;13.68;;;10.75;;